Bruce Crossing, MI

11:16 PM EST on November 23, 2014 (GMT -0500)
East Shore Rd, Marenisco | Change Station
CLOSE
Current Station
Personal Weather Station
Location: Marenisco, MI
Elevation: 1316 ft
Nearby Weather Stations

Elev 1316 ft 46.46 °N, 89.53 °W | Updated 5 minutes ago

Rain
Rain
36.0 °F
Feels Like 36 °F
N
0.0
Wind Variable Wind from ENE

Today
High -- | Low -- °F
--% Chance of Precip.
Yesterday
High -- | Low -- °F
Precip. -- in
8:09 AM 5:16 PM
Waxing Crescent, 3% visible
Pressure 29.25 in
Visibility 0.2 miles
Clouds Overcast 200 ft
Windchill 36 °F
Dew Point 36 °F
Humidity 99%
Rainfall 0.00 in
Snow Depth Not available.
UV 0 out of 12
Pollen .10 out of 12
Air Quality Not available.
Flu Activity Not available.
METAR KEGV 240335Z AUTO 00000KT 1/4SM -RA OVC002 04/04 A2925 RMK AO2 T00430043

More Conditions Fewer Conditions

Pressure 29.25 in
Visibility 0.2 miles
Clouds Overcast 200 ft
Windchill 36 °F
Dew Point 36 °F
Humidity 99%
Rainfall 0.00 in
Snow Depth Not available.
UV 0 out of 12
Pollen .10 out of 12
Air Quality Not available.
Flu Activity Not available.
METAR KEGV 240335Z AUTO 00000KT 1/4SM -RA OVC002 04/04 A2925 RMK AO2 T00430043

More Conditions Fewer Conditions

10-Day Weather Forecast

Almanac

Astronomy

Nov. 23, 2014 Rise Set
Actual Time
Civil Twilight
Nautical Twilight
Astronomical Twilight
Moon
Length of Visible Light
Length of Day
Tomorrow will be .
, % of the Moon is Illuminated

Today's Extremes

State Highs State Lows

Community

WunderPhotos

Upload Photos

1,773,265 photos uploaded!

WunderBlogs® & News

Nearby

Air Quality

  Air Quality AQ Index Pollutant
Not available.

Snow Depth

Station Depth Elevation

Earthquake Activity

City Distance Mag. Time & Date
Minimum magnitude displayed is 2.5.

Coastal Water Temperatures

Place Temperature

Nearby Weather Stations